Time;durP1;ratioP1;P1;durP2;ratioP2;P2;SDS_P1;SDS_P2;PMS_P1;PMS_P2;Temp;Humidity;BMP_temperature;BMP_pressure;BME280_temperature;BME280_humidity;BME280_pressure;Samples;Min_cycle;Max_cycle;Signal;HPM_P1;HPM_P2
2022/07/18 00:01:23;;;;;;;;;;;;;;;;;;5137759;27;19915;-86
2022/07/18 00:03:48;;;;;;;;;;;;;;;;;;5138128;27;19958;-85
2022/07/18 00:06:13;;;;;;;;;;;;;;;;;;5136787;27;19916;-85
2022/07/18 00:08:39;;;;;;;;;;;;;;;;;;5136440;27;20024;-85
2022/07/18 00:11:04;;;;;;;;;;;;;;;;;;5136480;27;20333;-86
2022/07/18 00:13:29;;;;;;;;;;;;;;;;;;5143473;27;19945;-87
2022/07/18 00:15:55;;;;;;;;;;;;;;;;;;5149673;27;19979;-85
2022/07/18 00:18:20;;;;;;;;;;;;;;;;;;5137639;27;19915;-85
2022/07/18 00:20:45;;;;;;;;;;;;;;;;;;5137538;27;19964;-85
2022/07/18 00:23:11;;;;;;;;;;;;;;;;;;5137321;27;19943;-84
2022/07/18 00:25:36;;;;;;;;;;;;;;;;;;5137445;27;19915;-85
2022/07/18 00:28:01;;;;;;;;;;;;;;;;;;5137568;27;19915;-85
2022/07/18 00:30:27;;;;;;;;;;;;;;;;;;5137432;27;20022;-85
2022/07/18 00:32:52;;;;;;;;;;;;;;;;;;5137818;27;19915;-86
2022/07/18 00:35:17;;;;;;;;;;;;;;;;;;5147767;27;19946;-85
2022/07/18 00:37:43;;;;;;;;;;;;;;;;;;5124015;27;19951;-84
2022/07/18 00:40:08;;;;;;;;;;;;;;;;;;5136900;27;19922;-85
2022/07/18 00:42:34;;;;;;;;;;;;;;;;;;5137563;27;20313;-84
2022/07/18 00:44:59;;;;;;;;;;;;;;;;;;5137463;27;19915;-86
2022/07/18 00:47:24;;;;;;;;;;;;;;;;;;5136795;27;19938;-85
2022/07/18 00:49:50;;;;;;;;;;;;;;;;;;5137144;27;19916;-87
2022/07/18 00:52:15;;;;;;;;;;;;;;;;;;5135627;27;19915;-87
2022/07/18 00:54:40;;;;;;;;;;;;;;;;;;5142756;27;19911;-84
2022/07/18 00:57:06;;;;;;;;;;;;;;;;;;5148394;27;19920;-85
2022/07/18 01:02:15;;;;;;;;;;;;;;;;;;5135621;27;20363;-86
2022/07/18 01:04:41;;;;;;;;;;;;;;;;;;5135548;27;20005;-85
2022/07/18 01:07:06;;;;;;;;;;;;;;;;;;5135250;27;19911;-86
2022/07/18 01:09:32;;;;;;;;;;;;;;;;;;5134956;27;20368;-85
2022/07/18 01:11:57;;;;;;;;;;;;;;;;;;5135634;27;19915;-86
2022/07/18 01:14:22;;;;;;;;;;;;;;;;;;5135320;27;19915;-86
2022/07/18 01:16:48;;;;;;;;;;;;;;;;;;5146125;27;20037;-86
2022/07/18 01:19:14;;;;;;;;;;;;;;;;;;5137766;27;19916;-85
2022/07/18 01:21:39;;;;;;;;;;;;;;;;;;5136559;27;20218;-85
2022/07/18 01:24:05;;;;;;;;;;;;;;;;;;5135128;27;19915;-85
2022/07/18 01:26:30;;;;;;;;;;;;;;;;;;5135239;27;20362;-85
2022/07/18 01:28:55;;;;;;;;;;;;;;;;;;5134938;27;19915;-86
2022/07/18 01:31:21;;;;;;;;;;;;;;;;;;5136297;27;19916;-86
2022/07/18 01:33:46;;;;;;;;;;;;;;;;;;5134787;27;19922;-85
2022/07/18 01:36:11;;;;;;;;;;;;;;;;;;5139833;27;19968;-85
2022/07/18 01:38:37;;;;;;;;;;;;;;;;;;5148177;27;19920;-86
2022/07/18 01:41:02;;;;;;;;;;;;;;;;;;5134724;27;19988;-86
2022/07/18 01:43:27;;;;;;;;;;;;;;;;;;5118832;27;19998;-85
2022/07/18 01:45:53;;;;;;;;;;;;;;;;;;5136938;27;19922;-86
2022/07/18 01:48:19;;;;;;;;;;;;;;;;;;5136254;27;20237;-86
2022/07/18 01:50:44;;;;;;;;;;;;;;;;;;5135138;27;20370;-86
2022/07/18 01:53:09;;;;;;;;;;;;;;;;;;5135709;27;20214;-86
2022/07/18 01:55:35;;;;;;;;;;;;;;;;;;5138385;27;20241;-86
2022/07/18 01:58:00;;;;;;;;;;;;;;;;;;5146125;27;19976;-86
2022/07/18 02:00:25;;;;;;;;;;;;;;;;;;5141857;27;19916;-86
2022/07/18 02:02:51;;;;;;;;;;;;;;;;;;5136123;27;19915;-85
2022/07/18 02:05:17;;;;;;;;;;;;;;;;;;5134588;27;19916;-86
2022/07/18 02:07:43;;;;;;;;;;;;;;;;;;5134403;27;20333;-86
2022/07/18 02:10:12;;;;;;;;;;;;;;;;;;5135499;27;19922;-86
2022/07/18 02:12:38;;;;;;;;;;;;;;;;;;5135796;27;19923;-86
2022/07/18 02:15:03;;;;;;;;;;;;;;;;;;5135586;27;19915;-86
2022/07/18 02:17:29;;;;;;;;;;;;;;;;;;5138256;28;20006;-85
2022/07/18 02:19:54;;;;;;;;;;;;;;;;;;5142837;27;20249;-86
2022/07/18 02:22:20;;;;;;;;;;;;;;;;;;5134532;27;19924;-85
2022/07/18 02:24:45;;;;;;;;;;;;;;;;;;5139692;27;19915;-85
2022/07/18 02:27:10;;;;;;;;;;;;;;;;;;5121377;27;19915;-86
2022/07/18 02:29:36;;;;;;;;;;;;;;;;;;5139604;27;19921;-86
2022/07/18 02:32:02;;;;;;;;;;;;;;;;;;5138229;27;19921;-86
2022/07/18 02:34:27;;;;;;;;;;;;;;;;;;5139838;27;20406;-85
2022/07/18 02:36:52;;;;;;;;;;;;;;;;;;5138220;27;19922;-86
2022/07/18 02:39:19;;;;;;;;;;;;;;;;;;5132246;27;19955;-86
2022/07/18 02:41:44;;;;;;;;;;;;;;;;;;5146020;27;20264;-87
2022/07/18 02:44:09;;;;;;;;;;;;;;;;;;5140844;27;19916;-86
2022/07/18 02:46:35;;;;;;;;;;;;;;;;;;5121858;27;20302;-85
2022/07/18 02:49:00;;;;;;;;;;;;;;;;;;5139321;27;20321;-85
2022/07/18 02:51:26;;;;;;;;;;;;;;;;;;5121194;27;19915;-87
2022/07/18 02:53:51;;;;;;;;;;;;;;;;;;5138866;27;19920;-86
2022/07/18 02:56:16;;;;;;;;;;;;;;;;;;5139512;27;19915;-86
2022/07/18 02:58:42;;;;;;;;;;;;;;;;;;5144453;27;19910;-86
2022/07/18 03:01:07;;;;;;;;;;;;;;;;;;5144220;27;20329;-87
2022/07/18 03:03:32;;;;;;;;;;;;;;;;;;5139089;27;19918;-86
2022/07/18 03:05:57;;;;;;;;;;;;;;;;;;5139209;27;19942;-87
2022/07/18 03:08:23;;;;;;;;;;;;;;;;;;5139220;27;19960;-86
2022/07/18 03:10:48;;;;;;;;;;;;;;;;;;5139200;27;20006;-85
2022/07/18 03:13:13;;;;;;;;;;;;;;;;;;5138694;27;19915;-87
2022/07/18 03:15:39;;;;;;;;;;;;;;;;;;5120231;27;19916;-86
2022/07/18 03:18:05;;;;;;;;;;;;;;;;;;5139134;27;20277;-86
2022/07/18 03:20:30;;;;;;;;;;;;;;;;;;5130617;27;19922;-87
2022/07/18 03:22:55;;;;;;;;;;;;;;;;;;5146157;27;19922;-87
2022/07/18 03:25:21;;;;;;;;;;;;;;;;;;5137868;27;20291;-87
2022/07/18 03:27:46;;;;;;;;;;;;;;;;;;5138760;27;20317;-87
2022/07/18 03:30:12;;;;;;;;;;;;;;;;;;5138239;27;19919;-86
2022/07/18 03:32:37;;;;;;;;;;;;;;;;;;5137761;27;20248;-87
2022/07/18 03:35:02;;;;;;;;;;;;;;;;;;5136023;27;20344;-87
2022/07/18 03:37:28;;;;;;;;;;;;;;;;;;5139014;27;19915;-86
2022/07/18 03:39:53;;;;;;;;;;;;;;;;;;5140383;27;20247;-84
2022/07/18 03:42:18;;;;;;;;;;;;;;;;;;5144480;27;20435;-86
2022/07/18 03:44:44;;;;;;;;;;;;;;;;;;5137194;27;19923;-87
2022/07/18 03:47:09;;;;;;;;;;;;;;;;;;5138895;27;19912;-85
2022/07/18 03:49:34;;;;;;;;;;;;;;;;;;5137015;27;19915;-85
2022/07/18 03:51:59;;;;;;;;;;;;;;;;;;5138487;27;20376;-85
2022/07/18 03:54:25;;;;;;;;;;;;;;;;;;5138055;27;20341;-86
2022/07/18 03:56:50;;;;;;;;;;;;;;;;;;5138355;27;19915;-86
2022/07/18 03:59:16;;;;;;;;;;;;;;;;;;5136761;27;19915;-86
2022/07/18 04:01:41;;;;;;;;;;;;;;;;;;5148731;27;19992;-86
2022/07/18 04:04:06;;;;;;;;;;;;;;;;;;5122709;27;19915;-87
2022/07/18 04:06:31;;;;;;;;;;;;;;;;;;5137785;27;19915;-88
2022/07/18 04:08:57;;;;;;;;;;;;;;;;;;5136929;27;20686;-86
2022/07/18 04:11:23;;;;;;;;;;;;;;;;;;5138031;27;19972;-86
2022/07/18 04:13:52;;;;;;;;;;;;;;;;;;5137806;27;20237;-86
2022/07/18 04:16:17;;;;;;;;;;;;;;;;;;5136456;27;19915;-87
2022/07/18 04:18:42;;;;;;;;;;;;;;;;;;5137557;27;19937;-85
2022/07/18 04:21:07;;;;;;;;;;;;;;;;;;5140404;27;19992;-86
2022/07/18 04:23:33;;;;;;;;;;;;;;;;;;5150095;27;19927;-87
2022/07/18 04:25:58;;;;;;;;;;;;;;;;;;5138673;27;19923;-86
2022/07/18 04:28:23;;;;;;;;;;;;;;;;;;5137486;27;19922;-85
2022/07/18 04:30:49;;;;;;;;;;;;;;;;;;5136422;27;20370;-86
2022/07/18 04:33:14;;;;;;;;;;;;;;;;;;5136186;27;19916;-86
2022/07/18 04:35:39;;;;;;;;;;;;;;;;;;5139295;27;20009;-86
2022/07/18 04:38:05;;;;;;;;;;;;;;;;;;5137594;27;20277;-87
2022/07/18 04:40:30;;;;;;;;;;;;;;;;;;5136007;27;19915;-85
2022/07/18 04:42:55;;;;;;;;;;;;;;;;;;5147316;27;19919;-88
2022/07/18 04:45:23;;;;;;;;;;;;;;;;;;5122703;27;19938;-87
2022/07/18 04:47:50;;;;;;;;;;;;;;;;;;5136932;27;19915;-85
2022/07/18 04:50:16;;;;;;;;;;;;;;;;;;5135932;27;19942;-88
2022/07/18 04:52:42;;;;;;;;;;;;;;;;;;5136884;27;20337;-87
2022/07/18 04:55:08;;;;;;;;;;;;;;;;;;5118717;28;19915;-84
2022/07/18 04:57:34;;;;;;;;;;;;;;;;;;5135664;27;19963;-85
2022/07/18 04:59:59;;;;;;;;;;;;;;;;;;5135573;27;20329;-85
2022/07/18 05:02:25;;;;;;;;;;;;;;;;;;5138890;27;19934;-87
2022/07/18 05:04:50;;;;;;;;;;;;;;;;;;5148303;27;20006;-84
2022/07/18 05:07:15;;;;;;;;;;;;;;;;;;5136999;27;20010;-85
2022/07/18 05:09:41;;;;;;;;;;;;;;;;;;5135990;27;20030;-84
2022/07/18 05:12:06;;;;;;;;;;;;;;;;;;5136747;27;19922;-83
2022/07/18 05:14:31;;;;;;;;;;;;;;;;;;5139161;27;19919;-84
2022/07/18 05:16:57;;;;;;;;;;;;;;;;;;5147067;27;19916;-84
2022/07/18 05:19:22;;;;;;;;;;;;;;;;;;5147077;27;19922;-84
2022/07/18 05:21:47;;;;;;;;;;;;;;;;;;5148051;27;19951;-84
2022/07/18 05:24:13;;;;;;;;;;;;;;;;;;5152302;27;19908;-84
2022/07/18 05:26:38;;;;;;;;;;;;;;;;;;5147139;27;19971;-84
2022/07/18 05:29:03;;;;;;;;;;;;;;;;;;5147270;27;19916;-84
2022/07/18 05:31:29;;;;;;;;;;;;;;;;;;5148067;27;20264;-85
2022/07/18 05:33:54;;;;;;;;;;;;;;;;;;5140116;27;19923;-83
2022/07/18 05:36:19;;;;;;;;;;;;;;;;;;5145996;27;19916;-84
2022/07/18 05:38:45;;;;;;;;;;;;;;;;;;5144221;27;19916;-84
2022/07/18 05:41:10;;;;;;;;;;;;;;;;;;5144960;27;19916;-84
2022/07/18 05:43:35;;;;;;;;;;;;;;;;;;5145423;27;19998;-80
2022/07/18 05:46:01;;;;;;;;;;;;;;;;;;5149375;27;19927;-84
2022/07/18 05:48:26;;;;;;;;;;;;;;;;;;5142258;27;19937;-84
2022/07/18 05:50:51;;;;;;;;;;;;;;;;;;5141889;27;20328;-86
2022/07/18 05:53:17;;;;;;;;;;;;;;;;;;5145920;27;19920;-83
2022/07/18 05:55:45;;;;;;;;;;;;;;;;;;5142965;27;19971;-85
2022/07/18 05:58:10;;;;;;;;;;;;;;;;;;5144910;27;19923;-83
2022/07/18 06:00:36;;;;;;;;;;;;;;;;;;5142655;27;19915;-82
2022/07/18 06:03:03;;;;;;;;;;;;;;;;;;5145945;27;19920;-82
2022/07/18 06:05:28;;;;;;;;;;;;;;;;;;5152564;27;19915;-83
2022/07/18 06:07:54;;;;;;;;;;;;;;;;;;5146421;27;19919;-82
2022/07/18 06:10:19;;;;;;;;;;;;;;;;;;5147670;27;19922;-81
2022/07/18 06:12:44;;;;;;;;;;;;;;;;;;5143529;27;19923;-82
2022/07/18 06:15:11;;;;;;;;;;;;;;;;;;5142574;28;19922;-82
2022/07/18 06:17:39;;;;;;;;;;;;;;;;;;5145189;28;19915;-82
2022/07/18 06:20:08;;;;;;;;;;;;;;;;;;5141676;28;20325;-83
2022/07/18 06:22:34;;;;;;;;;;;;;;;;;;5143947;28;20262;-82
2022/07/18 06:24:59;;;;;;;;;;;;;;;;;;5145815;28;19939;-84
2022/07/18 06:27:25;;;;;;;;;;;;;;;;;;5132731;28;20003;-84
2022/07/18 06:29:50;;;;;;;;;;;;;;;;;;5144991;27;19915;-84
2022/07/18 06:32:16;;;;;;;;;;;;;;;;;;5145354;27;19975;-84
2022/07/18 06:34:42;;;;;;;;;;;;;;;;;;5146745;27;19923;-84
2022/07/18 06:37:08;;;;;;;;;;;;;;;;;;5146687;27;19938;-82
2022/07/18 06:39:34;;;;;;;;;;;;;;;;;;5147325;27;19984;-83
2022/07/18 06:42:00;;;;;;;;;;;;;;;;;;5141983;27;19919;-85
2022/07/18 06:44:25;;;;;;;;;;;;;;;;;;5126153;28;19968;-84
2022/07/18 06:46:51;;;;;;;;;;;;;;;;;;5151881;28;20265;-83
2022/07/18 06:49:17;;;;;;;;;;;;;;;;;;5146226;28;19915;-84
2022/07/18 06:51:42;;;;;;;;;;;;;;;;;;5141070;27;19922;-83
2022/07/18 06:54:08;;;;;;;;;;;;;;;;;;5143353;27;19998;-83
2022/07/18 06:56:33;;;;;;;;;;;;;;;;;;5125373;28;19915;-84
2022/07/18 06:59:00;;;;;;;;;;;;;;;;;;5143338;27;20203;-83
2022/07/18 07:01:25;;;;;;;;;;;;;;;;;;5140470;28;19923;-85
2022/07/18 07:03:51;;;;;;;;;;;;;;;;;;5141267;27;19916;-84
2022/07/18 07:06:19;;;;;;;;;;;;;;;;;;5144911;28;19926;-82
2022/07/18 07:08:44;;;;;;;;;;;;;;;;;;5153047;27;19920;-84
2022/07/18 07:11:11;;;;;;;;;;;;;;;;;;5146463;27;19922;-85
2022/07/18 07:13:36;;;;;;;;;;;;;;;;;;5148352;27;19922;-84
2022/07/18 07:16:02;;;;;;;;;;;;;;;;;;5146132;27;20323;-84
2022/07/18 07:18:28;;;;;;;;;;;;;;;;;;5146593;27;19916;-84
2022/07/18 07:20:54;;;;;;;;;;;;;;;;;;5146098;27;19923;-84
2022/07/18 07:23:20;;;;;;;;;;;;;;;;;;5146055;27;19916;-83
2022/07/18 07:25:45;;;;;;;;;;;;;;;;;;5143824;27;20306;-84
2022/07/18 07:28:11;;;;;;;;;;;;;;;;;;5158117;27;19962;-84
2022/07/18 07:30:38;;;;;;;;;;;;;;;;;;5143882;27;19931;-83
2022/07/18 07:33:04;;;;;;;;;;;;;;;;;;5141995;27;20007;-83
2022/07/18 07:35:31;;;;;;;;;;;;;;;;;;5144731;27;19915;-83
2022/07/18 07:37:57;;;;;;;;;;;;;;;;;;5142157;27;19916;-84
2022/07/18 07:40:26;;;;;;;;;;;;;;;;;;5143570;27;19942;-84
2022/07/18 07:42:51;;;;;;;;;;;;;;;;;;5144032;27;20252;-84
2022/07/18 07:45:16;;;;;;;;;;;;;;;;;;5149792;27;19944;-84
2022/07/18 07:47:42;;;;;;;;;;;;;;;;;;5145714;27;19922;-84
2022/07/18 07:50:08;;;;;;;;;;;;;;;;;;5142044;27;19915;-83
2022/07/18 07:52:33;;;;;;;;;;;;;;;;;;5142756;27;19915;-84
2022/07/18 07:54:59;;;;;;;;;;;;;;;;;;5141858;27;19919;-83
2022/07/18 07:57:25;;;;;;;;;;;;;;;;;;5143307;27;19915;-83
2022/07/18 07:59:51;;;;;;;;;;;;;;;;;;5145657;27;19963;-84
2022/07/18 08:02:18;;;;;;;;;;;;;;;;;;5126767;27;19951;-83
2022/07/18 08:04:43;;;;;;;;;;;;;;;;;;5144501;27;19915;-81
2022/07/18 08:07:09;;;;;;;;;;;;;;;;;;5152379;27;19922;-84
2022/07/18 08:09:34;;;;;;;;;;;;;;;;;;5146275;27;20333;-83
2022/07/18 08:11:59;;;;;;;;;;;;;;;;;;5146196;27;19915;-83
2022/07/18 08:14:25;;;;;;;;;;;;;;;;;;5142910;27;19916;-83
2022/07/18 08:16:50;;;;;;;;;;;;;;;;;;5143172;27;19919;-83
2022/07/18 08:19:15;;;;;;;;;;;;;;;;;;5143131;27;19915;-83
2022/07/18 08:21:41;;;;;;;;;;;;;;;;;;5142681;27;19916;-84
2022/07/18 08:24:06;;;;;;;;;;;;;;;;;;5144299;27;19916;-84
2022/07/18 08:26:33;;;;;;;;;;;;;;;;;;5151435;27;20014;-84
2022/07/18 08:29:00;;;;;;;;;;;;;;;;;;5126355;27;19915;-84
2022/07/18 08:31:25;;;;;;;;;;;;;;;;;;5143435;27;19923;-81
2022/07/18 08:33:51;;;;;;;;;;;;;;;;;;5142890;27;19915;-80
2022/07/18 08:36:16;;;;;;;;;;;;;;;;;;5142622;27;19964;-81
2022/07/18 08:38:41;;;;;;;;;;;;;;;;;;5140569;27;19919;-82
2022/07/18 08:41:07;;;;;;;;;;;;;;;;;;5140872;27;20257;-81
2022/07/18 08:43:32;;;;;;;;;;;;;;;;;;5141065;27;19920;-82
2022/07/18 08:46:04;;;;;;;;;;;;;;;;;;5153918;27;19916;-82
2022/07/18 08:48:30;;;;;;;;;;;;;;;;;;5149651;27;19915;-82
2022/07/18 08:50:55;;;;;;;;;;;;;;;;;;5126057;27;19972;-81
2022/07/18 08:53:21;;;;;;;;;;;;;;;;;;5143124;27;19919;-82
2022/07/18 08:55:46;;;;;;;;;;;;;;;;;;5142156;27;20033;-85
2022/07/18 08:58:13;;;;;;;;;;;;;;;;;;5146635;27;19915;-82
2022/07/18 09:00:39;;;;;;;;;;;;;;;;;;5143964;27;19919;-82
2022/07/18 09:03:04;;;;;;;;;;;;;;;;;;5140579;27;19916;-82
2022/07/18 09:05:30;;;;;;;;;;;;;;;;;;5144026;27;19918;-83
2022/07/18 09:08:08;;;;;;;;;;;;;;;;;;5150625;27;19916;-82
2022/07/18 09:10:50;;;;;;;;;;;;;;;;;;5145725;27;19919;-83
2022/07/18 09:13:15;;;;;;;;;;;;;;;;;;5126380;27;19912;-82
2022/07/18 09:15:59;;;;;;;;;;;;;;;;;;5142064;27;19958;-82
2022/07/18 09:18:31;;;;;;;;;;;;;;;;;;5142902;27;20010;-83
2022/07/18 09:21:01;;;;;;;;;;;;;;;;;;5143069;27;19937;-82
2022/07/18 09:23:28;;;;;;;;;;;;;;;;;;5125423;27;19922;-82
2022/07/18 09:25:54;;;;;;;;;;;;;;;;;;5124207;27;19950;-83
2022/07/18 09:28:19;;;;;;;;;;;;;;;;;;5149845;27;19919;-84
2022/07/18 09:30:44;;;;;;;;;;;;;;;;;;5144032;27;19916;-83
2022/07/18 09:33:13;;;;;;;;;;;;;;;;;;5142896;27;19922;-83
2022/07/18 09:35:48;;;;;;;;;;;;;;;;;;5141685;27;19937;-83
2022/07/18 09:38:17;;;;;;;;;;;;;;;;;;5144669;27;19921;-82
2022/07/18 09:41:01;;;;;;;;;;;;;;;;;;5145085;27;19918;-82
2022/07/18 09:43:29;;;;;;;;;;;;;;;;;;5142933;27;19936;-81
2022/07/18 09:45:55;;;;;;;;;;;;;;;;;;5145135;27;20222;-83
2022/07/18 09:48:21;;;;;;;;;;;;;;;;;;5149018;27;19940;-83
2022/07/18 09:50:58;;;;;;;;;;;;;;;;;;5149997;27;19922;-82
2022/07/18 09:53:27;;;;;;;;;;;;;;;;;;5142083;27;19931;-82
2022/07/18 09:55:53;;;;;;;;;;;;;;;;;;5143784;27;19916;-82
2022/07/18 09:58:23;;;;;;;;;;;;;;;;;;5141267;27;20255;-82
2022/07/18 10:00:48;;;;;;;;;;;;;;;;;;5142608;27;19911;-82
2022/07/18 10:03:15;;;;;;;;;;;;;;;;;;5124439;27;20316;-82
2022/07/18 10:05:41;;;;;;;;;;;;;;;;;;5143106;27;19923;-82
2022/07/18 10:08:08;;;;;;;;;;;;;;;;;;5142154;27;19912;-82
2022/07/18 10:10:34;;;;;;;;;;;;;;;;;;5136674;28;19916;-83
2022/07/18 10:13:01;;;;;;;;;;;;;;;;;;5145152;27;19911;-83
2022/07/18 10:15:27;;;;;;;;;;;;;;;;;;5139928;27;19919;-82
2022/07/18 10:17:52;;;;;;;;;;;;;;;;;;5124020;28;19963;-82
2022/07/18 10:20:18;;;;;;;;;;;;;;;;;;5142129;28;20001;-83
2022/07/18 10:22:45;;;;;;;;;;;;;;;;;;5141407;27;19916;-82
2022/07/18 10:25:11;;;;;;;;;;;;;;;;;;5142603;27;19912;-82
2022/07/18 10:27:55;;;;;;;;;;;;;;;;;;5142990;27;19950;-83
2022/07/18 10:30:44;;;;;;;;;;;;;;;;;;5148303;27;19916;-81
2022/07/18 10:33:28;;;;;;;;;;;;;;;;;;5138161;28;19911;-82
2022/07/18 10:36:01;;;;;;;;;;;;;;;;;;5140544;28;20322;-83
2022/07/18 10:38:26;;;;;;;;;;;;;;;;;;5140280;27;20002;-83
2022/07/18 10:41:05;;;;;;;;;;;;;;;;;;5142983;28;19912;-82
2022/07/18 10:43:30;;;;;;;;;;;;;;;;;;5139956;27;20329;-82
2022/07/18 10:45:55;;;;;;;;;;;;;;;;;;5145606;27;19937;-82
2022/07/18 10:48:33;;;;;;;;;;;;;;;;;;5142220;27;20014;-84
2022/07/18 10:51:19;;;;;;;;;;;;;;;;;;5147984;27;19899;-82
2022/07/18 10:53:59;;;;;;;;;;;;;;;;;;5147188;27;19926;-83
2022/07/18 10:56:27;;;;;;;;;;;;;;;;;;5138016;27;19915;-84
2022/07/18 10:58:54;;;;;;;;;;;;;;;;;;5137777;27;20308;-84
2022/07/18 11:01:20;;;;;;;;;;;;;;;;;;5136955;27;19915;-84
2022/07/18 11:03:45;;;;;;;;;;;;;;;;;;5136861;27;20380;-84
2022/07/18 11:06:10;;;;;;;;;;;;;;;;;;5137987;27;19935;-83
2022/07/18 11:08:36;;;;;;;;;;;;;;;;;;5138319;27;19968;-84
2022/07/18 11:11:01;;;;;;;;;;;;;;;;;;5141819;27;19945;-83
2022/07/18 11:13:34;;;;;;;;;;;;;;;;;;5157036;27;19919;-84
2022/07/18 11:16:18;;;;;;;;;;;;;;;;;;5138166;27;19915;-83
2022/07/18 11:18:43;;;;;;;;;;;;;;;;;;5138338;27;19958;-82
2022/07/18 11:21:27;;;;;;;;;;;;;;;;;;5139872;27;20321;-83
2022/07/18 11:23:53;;;;;;;;;;;;;;;;;;5138764;27;19923;-82
2022/07/18 11:26:21;;;;;;;;;;;;;;;;;;5138505;27;19916;-83
2022/07/18 11:28:48;;;;;;;;;;;;;;;;;;5138779;27;19916;-83
2022/07/18 11:31:14;;;;;;;;;;;;;;;;;;5137881;27;19973;-82
2022/07/18 11:33:40;;;;;;;;;;;;;;;;;;5151158;27;19923;-82
2022/07/18 11:36:06;;;;;;;;;;;;;;;;;;5142960;27;19916;-84
2022/07/18 11:38:32;;;;;;;;;;;;;;;;;;5136744;27;19922;-84
2022/07/18 11:40:57;;;;;;;;;;;;;;;;;;5138088;27;19911;-83
2022/07/18 11:43:23;;;;;;;;;;;;;;;;;;5138065;27;20241;-84
2022/07/18 11:45:48;;;;;;;;;;;;;;;;;;5137794;27;20300;-83
2022/07/18 11:48:20;;;;;;;;;;;;;;;;;;5136996;27;19911;-84
2022/07/18 11:50:45;;;;;;;;;;;;;;;;;;5135461;27;19957;-84
2022/07/18 11:53:11;;;;;;;;;;;;;;;;;;5140104;27;19919;-84
2022/07/18 11:55:36;;;;;;;;;;;;;;;;;;5149648;27;20024;-84
2022/07/18 11:58:06;;;;;;;;;;;;;;;;;;5135483;27;19915;-85
2022/07/18 12:00:31;;;;;;;;;;;;;;;;;;5138294;27;19911;-83
2022/07/18 12:03:09;;;;;;;;;;;;;;;;;;5136513;27;19916;-85
2022/07/18 12:05:38;;;;;;;;;;;;;;;;;;5136596;27;19911;-84
2022/07/18 12:08:22;;;;;;;;;;;;;;;;;;5135978;27;20317;-84
2022/07/18 12:11:02;;;;;;;;;;;;;;;;;;5138066;27;19915;-88
2022/07/18 12:13:38;;;;;;;;;;;;;;;;;;5140319;27;19958;-85
2022/07/18 12:16:03;;;;;;;;;;;;;;;;;;5152958;27;19919;-87
2022/07/18 12:18:28;;;;;;;;;;;;;;;;;;5137772;27;20444;-87
2022/07/18 12:21:07;;;;;;;;;;;;;;;;;;5136323;27;19912;-84
2022/07/18 12:23:32;;;;;;;;;;;;;;;;;;5140142;27;19922;-87
2022/07/18 12:25:58;;;;;;;;;;;;;;;;;;5141668;27;19912;-84
2022/07/18 12:28:24;;;;;;;;;;;;;;;;;;5138172;27;20006;-85
2022/07/18 12:30:49;;;;;;;;;;;;;;;;;;5120370;27;19911;-84
2022/07/18 12:33:15;;;;;;;;;;;;;;;;;;5138431;27;19915;-84
2022/07/18 12:35:40;;;;;;;;;;;;;;;;;;5145271;27;19916;-84
2022/07/18 12:38:09;;;;;;;;;;;;;;;;;;5144510;27;20365;-84
2022/07/18 12:40:51;;;;;;;;;;;;;;;;;;5136433;27;20330;-84
2022/07/18 12:43:23;;;;;;;;;;;;;;;;;;5136621;27;20006;-84
2022/07/18 12:45:48;;;;;;;;;;;;;;;;;;5136651;27;20341;-86
2022/07/18 12:48:14;;;;;;;;;;;;;;;;;;5136514;27;19922;-88
2022/07/18 12:50:39;;;;;;;;;;;;;;;;;;5136064;27;19915;-85
2022/07/18 12:53:04;;;;;;;;;;;;;;;;;;5136198;27;20252;-84
2022/07/18 12:55:30;;;;;;;;;;;;;;;;;;5142240;27;19903;-85
2022/07/18 12:57:55;;;;;;;;;;;;;;;;;;5146050;27;19915;-83
2022/07/18 13:00:20;;;;;;;;;;;;;;;;;;5139227;27;20329;-85
2022/07/18 13:02:46;;;;;;;;;;;;;;;;;;5136987;27;19965;-84
2022/07/18 13:05:11;;;;;;;;;;;;;;;;;;5135711;27;20002;-87
2022/07/18 13:07:37;;;;;;;;;;;;;;;;;;5136464;27;19915;-83
2022/07/18 13:10:02;;;;;;;;;;;;;;;;;;5135569;27;20259;-86
2022/07/18 13:12:28;;;;;;;;;;;;;;;;;;5137124;27;20010;-87
2022/07/18 13:14:53;;;;;;;;;;;;;;;;;;5136172;27;19922;-83
2022/07/18 13:17:18;;;;;;;;;;;;;;;;;;5141970;27;19916;-85
2022/07/18 13:19:44;;;;;;;;;;;;;;;;;;5143845;27;19957;-84
2022/07/18 13:22:10;;;;;;;;;;;;;;;;;;5136967;27;19961;-84
2022/07/18 13:24:36;;;;;;;;;;;;;;;;;;5136797;27;19915;-86
2022/07/18 13:27:02;;;;;;;;;;;;;;;;;;5135087;27;20385;-84
2022/07/18 13:29:27;;;;;;;;;;;;;;;;;;5136055;27;19922;-86
2022/07/18 13:31:53;;;;;;;;;;;;;;;;;;5136202;27;19998;-82
2022/07/18 13:34:20;;;;;;;;;;;;;;;;;;5136305;27;19923;-82
2022/07/18 13:36:46;;;;;;;;;;;;;;;;;;5136349;27;20268;-84
2022/07/18 13:39:11;;;;;;;;;;;;;;;;;;5139122;27;20543;-84
2022/07/18 13:41:36;;;;;;;;;;;;;;;;;;5136353;27;19915;-84
2022/07/18 13:44:01;;;;;;;;;;;;;;;;;;5135697;27;19972;-84
2022/07/18 13:46:27;;;;;;;;;;;;;;;;;;5136291;27;19964;-84
2022/07/18 13:48:52;;;;;;;;;;;;;;;;;;5136364;27;19915;-86
2022/07/18 13:51:17;;;;;;;;;;;;;;;;;;5136731;27;19966;-86
2022/07/18 13:53:43;;;;;;;;;;;;;;;;;;5137960;27;20009;-85
2022/07/18 13:56:08;;;;;;;;;;;;;;;;;;5136614;27;20317;-89
2022/07/18 13:58:34;;;;;;;;;;;;;;;;;;5121946;27;20328;-83
2022/07/18 14:01:00;;;;;;;;;;;;;;;;;;5137730;27;19915;-84
2022/07/18 14:03:25;;;;;;;;;;;;;;;;;;5134728;27;19974;-84
2022/07/18 14:05:50;;;;;;;;;;;;;;;;;;5135917;27;19938;-86
2022/07/18 14:08:15;;;;;;;;;;;;;;;;;;5135950;27;20317;-88
2022/07/18 14:10:41;;;;;;;;;;;;;;;;;;5136103;27;19919;-87
2022/07/18 14:13:06;;;;;;;;;;;;;;;;;;5135752;27;19915;-84
2022/07/18 14:15:31;;;;;;;;;;;;;;;;;;5134386;27;19915;-84
2022/07/18 14:17:57;;;;;;;;;;;;;;;;;;5135108;27;19942;-85
2022/07/18 14:20:22;;;;;;;;;;;;;;;;;;5143387;27;19915;-85
2022/07/18 14:22:47;;;;;;;;;;;;;;;;;;5136112;28;19916;-86
2022/07/18 14:25:14;;;;;;;;;;;;;;;;;;5117015;28;19915;-85
2022/07/18 14:27:40;;;;;;;;;;;;;;;;;;5135019;27;19929;-86
2022/07/18 14:30:05;;;;;;;;;;;;;;;;;;5134478;28;19920;-85
2022/07/18 14:32:31;;;;;;;;;;;;;;;;;;5117073;28;20336;-84
2022/07/18 14:34:56;;;;;;;;;;;;;;;;;;5134041;28;20326;-85
2022/07/18 14:37:21;;;;;;;;;;;;;;;;;;5136221;27;19915;-84
2022/07/18 14:39:47;;;;;;;;;;;;;;;;;;5137587;27;20453;-86
2022/07/18 14:42:15;;;;;;;;;;;;;;;;;;5139904;28;19922;-85
2022/07/18 14:44:40;;;;;;;;;;;;;;;;;;5135185;27;20339;-85
2022/07/18 14:47:05;;;;;;;;;;;;;;;;;;5134283;28;19922;-84
2022/07/18 14:49:31;;;;;;;;;;;;;;;;;;5135573;27;20316;-85
2022/07/18 14:51:56;;;;;;;;;;;;;;;;;;5136604;27;20282;-86
2022/07/18 14:54:22;;;;;;;;;;;;;;;;;;5135147;27;19919;-84
2022/07/18 14:56:47;;;;;;;;;;;;;;;;;;5134794;27;19915;-85
2022/07/18 14:59:13;;;;;;;;;;;;;;;;;;5136710;27;19922;-84
2022/07/18 15:01:38;;;;;;;;;;;;;;;;;;5134670;28;19915;-85
2022/07/18 15:04:03;;;;;;;;;;;;;;;;;;5135306;27;19971;-85
2022/07/18 15:06:29;;;;;;;;;;;;;;;;;;5134864;27;19961;-85
2022/07/18 15:08:54;;;;;;;;;;;;;;;;;;5134031;28;19923;-84
2022/07/18 15:11:22;;;;;;;;;;;;;;;;;;5133541;28;20273;-85
2022/07/18 15:13:48;;;;;;;;;;;;;;;;;;5134118;28;19939;-87
2022/07/18 15:16:13;;;;;;;;;;;;;;;;;;5135307;27;20333;-83
2022/07/18 15:18:38;;;;;;;;;;;;;;;;;;5134541;28;19916;-84
2022/07/18 15:21:04;;;;;;;;;;;;;;;;;;5139427;27;19922;-84
2022/07/18 15:23:29;;;;;;;;;;;;;;;;;;5138415;27;19915;-83
2022/07/18 15:25:54;;;;;;;;;;;;;;;;;;5134842;27;20378;-84
2022/07/18 15:28:22;;;;;;;;;;;;;;;;;;5134982;27;19923;-84
2022/07/18 15:30:47;;;;;;;;;;;;;;;;;;5135749;27;19915;-82
2022/07/18 15:33:13;;;;;;;;;;;;;;;;;;5138694;27;20265;-83
2022/07/18 15:35:38;;;;;;;;;;;;;;;;;;5138526;27;19923;-84
2022/07/18 15:38:04;;;;;;;;;;;;;;;;;;5137460;27;19994;-83
2022/07/18 15:40:29;;;;;;;;;;;;;;;;;;5140862;27;19978;-85
2022/07/18 15:42:54;;;;;;;;;;;;;;;;;;5142046;27;19916;-84
2022/07/18 15:45:20;;;;;;;;;;;;;;;;;;5139235;27;20005;-83
2022/07/18 15:47:45;;;;;;;;;;;;;;;;;;5139226;27;19915;-83
2022/07/18 15:50:11;;;;;;;;;;;;;;;;;;5139205;27;19972;-85
2022/07/18 15:52:37;;;;;;;;;;;;;;;;;;5138261;27;19972;-84
2022/07/18 15:55:03;;;;;;;;;;;;;;;;;;5138090;27;19941;-84
2022/07/18 15:57:28;;;;;;;;;;;;;;;;;;5138190;27;19919;-86
2022/07/18 15:59:53;;;;;;;;;;;;;;;;;;5138241;27;19915;-84
2022/07/18 16:02:19;;;;;;;;;;;;;;;;;;5141213;27;19915;-85
2022/07/18 16:04:44;;;;;;;;;;;;;;;;;;5136411;27;19915;-84
2022/07/18 16:07:09;;;;;;;;;;;;;;;;;;5138013;27;19916;-84
2022/07/18 16:09:38;;;;;;;;;;;;;;;;;;5137679;27;19972;-84
2022/07/18 16:12:04;;;;;;;;;;;;;;;;;;5137951;27;20072;-83
2022/07/18 16:14:29;;;;;;;;;;;;;;;;;;5136480;27;20411;-83
2022/07/18 16:16:54;;;;;;;;;;;;;;;;;;5137605;27;19915;-85
2022/07/18 16:19:20;;;;;;;;;;;;;;;;;;5137864;27;19999;-84
2022/07/18 16:21:45;;;;;;;;;;;;;;;;;;5136551;27;19911;-83
2022/07/18 16:24:10;;;;;;;;;;;;;;;;;;5136262;27;19922;-85
2022/07/18 16:26:36;;;;;;;;;;;;;;;;;;5137676;27;19918;-84
2022/07/18 16:29:01;;;;;;;;;;;;;;;;;;5137689;27;19915;-84
2022/07/18 16:31:27;;;;;;;;;;;;;;;;;;5136025;27;19921;-84
2022/07/18 16:33:52;;;;;;;;;;;;;;;;;;5136314;27;19918;-84
2022/07/18 16:36:17;;;;;;;;;;;;;;;;;;5136172;27;19915;-84
2022/07/18 16:38:43;;;;;;;;;;;;;;;;;;5137212;27;19937;-84
2022/07/18 16:41:08;;;;;;;;;;;;;;;;;;5137082;27;19915;-83
2022/07/18 16:43:33;;;;;;;;;;;;;;;;;;5139366;27;19916;-84